Hollins, Alabama
Current Conditions -  °F | °C
As of 9:35 AM on Monday 24 Nov 2014 (Local Time) from KSCD Reporting Station
Broken Clouds Broken Clouds  
Wind Chill: 68°   Ceiling: 2600
Heat Index: 68°   Visibility: 10mi
Dew Point: 57°   Wind: 15mph
Humidity: 69%   Direction: 250°WSW
Pressure: 29.83"   Gusts: 24mph
Location:  33.12°N, 86.14°W
Report Text: KSCD 241535Z AUTO 25013G21KT 10SM BKN026 20/14 A2983 RMK AO2 T01990141
Loading
Personal Weather Stations






























Interactive Weather Map New forecast layout! Learn more

10-Day Weather Forecast

Advertisements
Track Severe Weather on mobile